sensor_id;sensor_type;location;lat;lon;timestamp;P1;P2;P0
74880;PMS5003;63427;49.654;6.596;2023-02-28T00:00:51;10;10;
74880;PMS5003;63427;49.654;6.596;2023-02-28T00:03:17;10;10;
74880;PMS5003;63427;49.654;6.596;2023-02-28T00:05:42;10;10;
74880;PMS5003;63427;49.654;6.596;2023-02-28T00:08:07;10;10;
74880;PMS5003;63427;49.654;6.596;2023-02-28T00:10:32;8;8;
74880;PMS5003;63427;49.654;6.596;2023-02-28T00:12:59;8;8;
74880;PMS5003;63427;49.654;6.596;2023-02-28T00:15:23;8;8;
74880;PMS5003;63427;49.654;6.596;2023-02-28T00:17:48;8;7;
74880;PMS5003;63427;49.654;6.596;2023-02-28T00:20:14;7;6;
74880;PMS5003;63427;49.654;6.596;2023-02-28T00:22:40;6;6;
74880;PMS5003;63427;49.654;6.596;2023-02-28T00:25:04;5;5;
74880;PMS5003;63427;49.654;6.596;2023-02-28T00:27:30;6;6;
74880;PMS5003;63427;49.654;6.596;2023-02-28T00:29:55;7;7;
74880;PMS5003;63427;49.654;6.596;2023-02-28T00:32:20;5;5;
74880;PMS5003;63427;49.654;6.596;2023-02-28T00:34:45;6;5;
74880;PMS5003;63427;49.654;6.596;2023-02-28T00:37:11;5;5;
74880;PMS5003;63427;49.654;6.596;2023-02-28T00:39:36;8;6;
74880;PMS5003;63427;49.654;6.596;2023-02-28T00:42:01;6;6;
74880;PMS5003;63427;49.654;6.596;2023-02-28T00:44:26;6;5;
74880;PMS5003;63427;49.654;6.596;2023-02-28T00:46:52;5;5;
74880;PMS5003;63427;49.654;6.596;2023-02-28T00:49:17;7;7;
74880;PMS5003;63427;49.654;6.596;2023-02-28T00:51:42;8;8;
74880;PMS5003;63427;49.654;6.596;2023-02-28T00:54:08;7;7;
74880;PMS5003;63427;49.654;6.596;2023-02-28T00:56:33;7;6;
74880;PMS5003;63427;49.654;6.596;2023-02-28T00:58:58;6;6;
74880;PMS5003;63427;49.654;6.596;2023-02-28T01:01:23;6;6;
74880;PMS5003;63427;49.654;6.596;2023-02-28T01:03:49;6;6;
74880;PMS5003;63427;49.654;6.596;2023-02-28T01:06:14;6;6;
74880;PMS5003;63427;49.654;6.596;2023-02-28T01:08:39;6;6;
74880;PMS5003;63427;49.654;6.596;2023-02-28T01:11:09;7;7;
74880;PMS5003;63427;49.654;6.596;2023-02-28T01:13:30;9;7;
74880;PMS5003;63427;49.654;6.596;2023-02-28T01:15:55;7;7;
74880;PMS5003;63427;49.654;6.596;2023-02-28T01:18:21;6;5;
74880;PMS5003;63427;49.654;6.596;2023-02-28T01:20:46;7;6;
74880;PMS5003;63427;49.654;6.596;2023-02-28T01:23:11;6;6;
74880;PMS5003;63427;49.654;6.596;2023-02-28T01:25:37;10;9;
74880;PMS5003;63427;49.654;6.596;2023-02-28T01:28:02;6;6;
74880;PMS5003;63427;49.654;6.596;2023-02-28T01:30:27;6;6;
74880;PMS5003;63427;49.654;6.596;2023-02-28T01:32:53;6;6;
74880;PMS5003;63427;49.654;6.596;2023-02-28T01:35:18;6;6;
74880;PMS5003;63427;49.654;6.596;2023-02-28T01:37:43;6;6;
74880;PMS5003;63427;49.654;6.596;2023-02-28T01:40:09;7;7;
74880;PMS5003;63427;49.654;6.596;2023-02-28T01:42:34;6;6;
74880;PMS5003;63427;49.654;6.596;2023-02-28T01:45:01;6;5;
74880;PMS5003;63427;49.654;6.596;2023-02-28T01:47:25;6;6;
74880;PMS5003;63427;49.654;6.596;2023-02-28T01:49:50;6;6;
74880;PMS5003;63427;49.654;6.596;2023-02-28T01:52:15;7;6;
74880;PMS5003;63427;49.654;6.596;2023-02-28T01:54:41;6;6;
74880;PMS5003;63427;49.654;6.596;2023-02-28T01:57:07;6;6;
74880;PMS5003;63427;49.654;6.596;2023-02-28T01:59:33;6;6;
74880;PMS5003;63427;49.654;6.596;2023-02-28T02:01:57;6;6;
74880;PMS5003;63427;49.654;6.596;2023-02-28T02:04:22;7;7;
74880;PMS5003;63427;49.654;6.596;2023-02-28T02:06:47;7;7;
74880;PMS5003;63427;49.654;6.596;2023-02-28T02:09:13;7;6;
74880;PMS5003;63427;49.654;6.596;2023-02-28T02:11:39;18;17;
74880;PMS5003;63427;49.654;6.596;2023-02-28T02:14:10;17;15;
74880;PMS5003;63427;49.654;6.596;2023-02-28T02:16:34;7;7;
74880;PMS5003;63427;49.654;6.596;2023-02-28T02:18:56;10;10;
74880;PMS5003;63427;49.654;6.596;2023-02-28T02:21:31;7;7;
74880;PMS5003;63427;49.654;6.596;2023-02-28T02:23:50;6;6;
74880;PMS5003;63427;49.654;6.596;2023-02-28T02:26:21;9;7;
74880;PMS5003;63427;49.654;6.596;2023-02-28T02:28:42;11;10;
74880;PMS5003;63427;49.654;6.596;2023-02-28T02:31:09;9;7;
74880;PMS5003;63427;49.654;6.596;2023-02-28T02:33:33;51;49;
74880;PMS5003;63427;49.654;6.596;2023-02-28T02:35:52;21;21;
74880;PMS5003;63427;49.654;6.596;2023-02-28T02:38:18;10;10;
74880;PMS5003;63427;49.654;6.596;2023-02-28T02:40:43;7;7;
74880;PMS5003;63427;49.654;6.596;2023-02-28T02:43:09;6;6;
74880;PMS5003;63427;49.654;6.596;2023-02-28T02:45:33;6;6;
74880;PMS5003;63427;49.654;6.596;2023-02-28T02:47:58;15;14;
74880;PMS5003;63427;49.654;6.596;2023-02-28T02:50:24;10;9;
74880;PMS5003;63427;49.654;6.596;2023-02-28T02:52:49;9;9;
74880;PMS5003;63427;49.654;6.596;2023-02-28T02:55:14;6;6;
74880;PMS5003;63427;49.654;6.596;2023-02-28T02:57:41;7;7;
74880;PMS5003;63427;49.654;6.596;2023-02-28T03:00:05;9;9;
74880;PMS5003;63427;49.654;6.596;2023-02-28T03:02:30;6;6;
74880;PMS5003;63427;49.654;6.596;2023-02-28T03:04:56;7;6;
74880;PMS5003;63427;49.654;6.596;2023-02-28T03:07:20;9;9;
74880;PMS5003;63427;49.654;6.596;2023-02-28T03:09:50;10;7;
74880;PMS5003;63427;49.654;6.596;2023-02-28T03:12:11;6;6;
74880;PMS5003;63427;49.654;6.596;2023-02-28T03:14:40;9;7;
74880;PMS5003;63427;49.654;6.596;2023-02-28T03:17:08;10;10;
74880;PMS5003;63427;49.654;6.596;2023-02-28T03:19:33;9;9;
74880;PMS5003;63427;49.654;6.596;2023-02-28T03:21:56;7;7;
74880;PMS5003;63427;49.654;6.596;2023-02-28T03:24:19;9;9;
74880;PMS5003;63427;49.654;6.596;2023-02-28T03:26:43;6;6;
74880;PMS5003;63427;49.654;6.596;2023-02-28T03:29:11;9;9;
74880;PMS5003;63427;49.654;6.596;2023-02-28T03:31:35;11;9;
74880;PMS5003;63427;49.654;6.596;2023-02-28T03:34:00;6;6;
74880;PMS5003;63427;49.654;6.596;2023-02-28T03:36:25;10;7;
74880;PMS5003;63427;49.654;6.596;2023-02-28T03:38:50;7;7;
74880;PMS5003;63427;49.654;6.596;2023-02-28T03:41:16;7;7;
74880;PMS5003;63427;49.654;6.596;2023-02-28T03:43:41;7;7;
74880;PMS5003;63427;49.654;6.596;2023-02-28T03:46:07;7;6;
74880;PMS5003;63427;49.654;6.596;2023-02-28T03:48:32;8;8;
74880;PMS5003;63427;49.654;6.596;2023-02-28T03:50:57;9;9;
74880;PMS5003;63427;49.654;6.596;2023-02-28T03:53:23;8;8;
74880;PMS5003;63427;49.654;6.596;2023-02-28T03:55:48;6;6;
74880;PMS5003;63427;49.654;6.596;2023-02-28T03:58:15;6;6;
74880;PMS5003;63427;49.654;6.596;2023-02-28T04:00:39;9;9;
74880;PMS5003;63427;49.654;6.596;2023-02-28T04:03:03;8;8;
74880;PMS5003;63427;49.654;6.596;2023-02-28T04:05:29;8;8;
74880;PMS5003;63427;49.654;6.596;2023-02-28T04:07:54;6;6;
74880;PMS5003;63427;49.654;6.596;2023-02-28T04:10:20;8;6;
74880;PMS5003;63427;49.654;6.596;2023-02-28T04:12:45;10;9;
74880;PMS5003;63427;49.654;6.596;2023-02-28T04:15:10;6;6;
74880;PMS5003;63427;49.654;6.596;2023-02-28T04:17:36;8;8;
74880;PMS5003;63427;49.654;6.596;2023-02-28T04:20:01;12;12;
74880;PMS5003;63427;49.654;6.596;2023-02-28T04:22:26;9;9;
74880;PMS5003;63427;49.654;6.596;2023-02-28T04:24:52;12;9;
74880;PMS5003;63427;49.654;6.596;2023-02-28T04:27:17;13;13;
74880;PMS5003;63427;49.654;6.596;2023-02-28T04:29:43;16;16;
74880;PMS5003;63427;49.654;6.596;2023-02-28T04:32:08;12;10;
74880;PMS5003;63427;49.654;6.596;2023-02-28T04:34:33;14;14;
74880;PMS5003;63427;49.654;6.596;2023-02-28T04:36:59;8;6;
74880;PMS5003;63427;49.654;6.596;2023-02-28T04:39:24;9;8;
74880;PMS5003;63427;49.654;6.596;2023-02-28T04:41:49;8;6;
74880;PMS5003;63427;49.654;6.596;2023-02-28T04:44:14;9;9;
74880;PMS5003;63427;49.654;6.596;2023-02-28T04:46:40;13;13;
74880;PMS5003;63427;49.654;6.596;2023-02-28T04:49:05;12;12;
74880;PMS5003;63427;49.654;6.596;2023-02-28T04:51:31;8;8;
74880;PMS5003;63427;49.654;6.596;2023-02-28T04:53:56;12;12;
74880;PMS5003;63427;49.654;6.596;2023-02-28T04:56:21;9;9;
74880;PMS5003;63427;49.654;6.596;2023-02-28T04:58:47;12;10;
74880;PMS5003;63427;49.654;6.596;2023-02-28T05:01:18;12;12;
74880;PMS5003;63427;49.654;6.596;2023-02-28T05:03:38;10;10;
74880;PMS5003;63427;49.654;6.596;2023-02-28T05:06:03;13;13;
74880;PMS5003;63427;49.654;6.596;2023-02-28T05:08:28;8;6;
74880;PMS5003;63427;49.654;6.596;2023-02-28T05:10:54;10;10;
74880;PMS5003;63427;49.654;6.596;2023-02-28T05:13:19;8;8;
74880;PMS5003;63427;49.654;6.596;2023-02-28T05:15:44;10;10;
74880;PMS5003;63427;49.654;6.596;2023-02-28T05:18:10;13;12;
74880;PMS5003;63427;49.654;6.596;2023-02-28T05:20:35;10;10;
74880;PMS5003;63427;49.654;6.596;2023-02-28T05:23:00;9;9;
74880;PMS5003;63427;49.654;6.596;2023-02-28T05:25:26;12;12;
74880;PMS5003;63427;49.654;6.596;2023-02-28T05:27:51;10;10;
74880;PMS5003;63427;49.654;6.596;2023-02-28T05:30:17;16;14;
74880;PMS5003;63427;49.654;6.596;2023-02-28T05:32:42;12;12;
74880;PMS5003;63427;49.654;6.596;2023-02-28T05:35:08;13;13;
74880;PMS5003;63427;49.654;6.596;2023-02-28T05:37:33;12;10;
74880;PMS5003;63427;49.654;6.596;2023-02-28T05:39:58;16;14;
74880;PMS5003;63427;49.654;6.596;2023-02-28T05:42:23;16;16;
74880;PMS5003;63427;49.654;6.596;2023-02-28T05:44:49;17;17;
74880;PMS5003;63427;49.654;6.596;2023-02-28T05:47:14;17;16;
74880;PMS5003;63427;49.654;6.596;2023-02-28T05:49:40;14;13;
74880;PMS5003;63427;49.654;6.596;2023-02-28T05:52:05;14;14;
74880;PMS5003;63427;49.654;6.596;2023-02-28T05:54:30;18;16;
74880;PMS5003;63427;49.654;6.596;2023-02-28T05:56:55;14;13;
74880;PMS5003;63427;49.654;6.596;2023-02-28T05:59:21;23;20;
74880;PMS5003;63427;49.654;6.596;2023-02-28T06:01:46;13;13;
74880;PMS5003;63427;49.654;6.596;2023-02-28T06:04:11;27;25;
74880;PMS5003;63427;49.654;6.596;2023-02-28T06:06:37;17;17;
74880;PMS5003;63427;49.654;6.596;2023-02-28T06:09:02;23;18;
74880;PMS5003;63427;49.654;6.596;2023-02-28T06:11:28;20;17;
74880;PMS5003;63427;49.654;6.596;2023-02-28T06:13:54;25;23;
74880;PMS5003;63427;49.654;6.596;2023-02-28T06:16:18;28;25;
74880;PMS5003;63427;49.654;6.596;2023-02-28T06:18:44;33;31;
74880;PMS5003;63427;49.654;6.596;2023-02-28T06:21:09;31;31;
74880;PMS5003;63427;49.654;6.596;2023-02-28T06:23:34;26;24;
74880;PMS5003;63427;49.654;6.596;2023-02-28T06:26:00;25;24;
74880;PMS5003;63427;49.654;6.596;2023-02-28T06:28:25;21;20;
74880;PMS5003;63427;49.654;6.596;2023-02-28T06:30:51;28;25;
74880;PMS5003;63427;49.654;6.596;2023-02-28T06:33:15;21;20;
74880;PMS5003;63427;49.654;6.596;2023-02-28T06:35:43;29;26;
74880;PMS5003;63427;49.654;6.596;2023-02-28T06:38:06;24;24;
74880;PMS5003;63427;49.654;6.596;2023-02-28T06:40:31;29;28;
74880;PMS5003;63427;49.654;6.596;2023-02-28T06:42:56;33;30;
74880;PMS5003;63427;49.654;6.596;2023-02-28T06:45:22;20;20;
74880;PMS5003;63427;49.654;6.596;2023-02-28T06:47:47;22;21;
74880;PMS5003;63427;49.654;6.596;2023-02-28T06:50:12;31;30;
74880;PMS5003;63427;49.654;6.596;2023-02-28T06:52:38;22;22;
74880;PMS5003;63427;49.654;6.596;2023-02-28T06:55:04;20;20;
74880;PMS5003;63427;49.654;6.596;2023-02-28T06:57:29;24;24;
74880;PMS5003;63427;49.654;6.596;2023-02-28T06:59:54;29;28;
74880;PMS5003;63427;49.654;6.596;2023-02-28T07:02:19;30;29;
74880;PMS5003;63427;49.654;6.596;2023-02-28T07:04:45;25;25;
74880;PMS5003;63427;49.654;6.596;2023-02-28T07:07:10;26;26;
74880;PMS5003;63427;49.654;6.596;2023-02-28T07:09:35;28;26;
74880;PMS5003;63427;49.654;6.596;2023-02-28T07:12:01;22;22;
74880;PMS5003;63427;49.654;6.596;2023-02-28T07:14:26;24;22;
74880;PMS5003;63427;49.654;6.596;2023-02-28T07:16:51;27;23;
74880;PMS5003;63427;49.654;6.596;2023-02-28T07:19:17;34;29;
74880;PMS5003;63427;49.654;6.596;2023-02-28T07:21:42;25;22;
74880;PMS5003;63427;49.654;6.596;2023-02-28T07:24:07;22;22;
74880;PMS5003;63427;49.654;6.596;2023-02-28T07:26:32;23;22;
74880;PMS5003;63427;49.654;6.596;2023-02-28T07:28:58;26;23;
74880;PMS5003;63427;49.654;6.596;2023-02-28T07:31:23;19;19;
74880;PMS5003;63427;49.654;6.596;2023-02-28T07:33:48;34;34;
74880;PMS5003;63427;49.654;6.596;2023-02-28T07:36:14;24;24;
74880;PMS5003;63427;49.654;6.596;2023-02-28T07:38:39;23;23;
74880;PMS5003;63427;49.654;6.596;2023-02-28T07:41:05;34;32;
74880;PMS5003;63427;49.654;6.596;2023-02-28T07:43:30;23;23;
74880;PMS5003;63427;49.654;6.596;2023-02-28T07:46:00;20;20;
74880;PMS5003;63427;49.654;6.596;2023-02-28T07:48:21;34;33;
74880;PMS5003;63427;49.654;6.596;2023-02-28T07:53:12;28;25;
74880;PMS5003;63427;49.654;6.596;2023-02-28T07:55:38;25;24;
74880;PMS5003;63427;49.654;6.596;2023-02-28T07:58:03;23;23;
74880;PMS5003;63427;49.654;6.596;2023-02-28T08:00:28;22;21;
74880;PMS5003;63427;49.654;6.596;2023-02-28T08:02:54;24;22;
74880;PMS5003;63427;49.654;6.596;2023-02-28T08:05:19;24;21;
74880;PMS5003;63427;49.654;6.596;2023-02-28T08:07:45;29;26;
74880;PMS5003;63427;49.654;6.596;2023-02-28T08:10:10;25;24;
74880;PMS5003;63427;49.654;6.596;2023-02-28T08:12:36;22;21;
74880;PMS5003;63427;49.654;6.596;2023-02-28T08:15:02;22;22;
74880;PMS5003;63427;49.654;6.596;2023-02-28T08:17:27;24;24;
74880;PMS5003;63427;49.654;6.596;2023-02-28T08:19:52;26;24;
74880;PMS5003;63427;49.654;6.596;2023-02-28T08:22:17;24;23;
74880;PMS5003;63427;49.654;6.596;2023-02-28T08:24:43;20;20;
74880;PMS5003;63427;49.654;6.596;2023-02-28T08:27:09;22;19;
74880;PMS5003;63427;49.654;6.596;2023-02-28T08:29:36;24;23;
74880;PMS5003;63427;49.654;6.596;2023-02-28T08:32:00;18;18;
74880;PMS5003;63427;49.654;6.596;2023-02-28T08:34:25;21;19;
74880;PMS5003;63427;49.654;6.596;2023-02-28T08:36:51;20;19;
74880;PMS5003;63427;49.654;6.596;2023-02-28T08:39:16;21;19;
74880;PMS5003;63427;49.654;6.596;2023-02-28T08:41:41;21;21;
74880;PMS5003;63427;49.654;6.596;2023-02-28T08:44:06;16;16;
74880;PMS5003;63427;49.654;6.596;2023-02-28T08:46:32;20;17;
74880;PMS5003;63427;49.654;6.596;2023-02-28T08:48:57;21;21;
74880;PMS5003;63427;49.654;6.596;2023-02-28T08:51:22;19;18;
74880;PMS5003;63427;49.654;6.596;2023-02-28T08:53:47;19;18;
74880;PMS5003;63427;49.654;6.596;2023-02-28T08:56:13;20;19;
74880;PMS5003;63427;49.654;6.596;2023-02-28T08:58:38;20;19;
74880;PMS5003;63427;49.654;6.596;2023-02-28T09:01:07;17;16;
74880;PMS5003;63427;49.654;6.596;2023-02-28T09:03:29;17;17;
74880;PMS5003;63427;49.654;6.596;2023-02-28T09:05:55;13;13;
74880;PMS5003;63427;49.654;6.596;2023-02-28T09:08:20;20;20;
74880;PMS5003;63427;49.654;6.596;2023-02-28T09:10:46;21;19;
74880;PMS5003;63427;49.654;6.596;2023-02-28T09:13:11;17;17;
74880;PMS5003;63427;49.654;6.596;2023-02-28T09:15:37;17;16;
74880;PMS5003;63427;49.654;6.596;2023-02-28T09:18:01;12;12;
74880;PMS5003;63427;49.654;6.596;2023-02-28T09:20:27;17;17;
74880;PMS5003;63427;49.654;6.596;2023-02-28T09:22:52;20;18;
74880;PMS5003;63427;49.654;6.596;2023-02-28T09:25:18;14;13;
74880;PMS5003;63427;49.654;6.596;2023-02-28T09:27:43;17;15;
74880;PMS5003;63427;49.654;6.596;2023-02-28T09:30:09;10;10;
74880;PMS5003;63427;49.654;6.596;2023-02-28T09:32:34;14;13;
74880;PMS5003;63427;49.654;6.596;2023-02-28T09:35:00;13;12;
74880;PMS5003;63427;49.654;6.596;2023-02-28T09:37:26;15;14;
74880;PMS5003;63427;49.654;6.596;2023-02-28T09:39:52;13;13;
74880;PMS5003;63427;49.654;6.596;2023-02-28T09:42:19;14;14;
74880;PMS5003;63427;49.654;6.596;2023-02-28T09:44:44;14;14;
74880;PMS5003;63427;49.654;6.596;2023-02-28T09:47:11;19;18;
74880;PMS5003;63427;49.654;6.596;2023-02-28T09:49:36;16;14;
74880;PMS5003;63427;49.654;6.596;2023-02-28T09:52:00;16;16;
74880;PMS5003;63427;49.654;6.596;2023-02-28T09:54:27;26;25;
74880;PMS5003;63427;49.654;6.596;2023-02-28T09:56:52;17;17;
74880;PMS5003;63427;49.654;6.596;2023-02-28T09:59:19;24;23;
74880;PMS5003;63427;49.654;6.596;2023-02-28T10:01:43;23;18;
74880;PMS5003;63427;49.654;6.596;2023-02-28T10:04:08;37;36;
74880;PMS5003;63427;49.654;6.596;2023-02-28T10:06:33;14;14;
74880;PMS5003;63427;49.654;6.596;2023-02-28T10:09:00;16;15;
74880;PMS5003;63427;49.654;6.596;2023-02-28T10:11:23;16;15;
74880;PMS5003;63427;49.654;6.596;2023-02-28T10:13:50;18;17;
74880;PMS5003;63427;49.654;6.596;2023-02-28T10:16:15;16;15;
74880;PMS5003;63427;49.654;6.596;2023-02-28T10:18:41;15;15;
74880;PMS5003;63427;49.654;6.596;2023-02-28T10:21:08;11;11;
74880;PMS5003;63427;49.654;6.596;2023-02-28T10:23:33;19;17;
74880;PMS5003;63427;49.654;6.596;2023-02-28T10:25:58;14;14;
74880;PMS5003;63427;49.654;6.596;2023-02-28T10:28:23;18;18;
74880;PMS5003;63427;49.654;6.596;2023-02-28T10:30:48;15;13;
74880;PMS5003;63427;49.654;6.596;2023-02-28T10:33:17;15;13;
74880;PMS5003;63427;49.654;6.596;2023-02-28T10:35:40;17;16;
74880;PMS5003;63427;49.654;6.596;2023-02-28T10:38:08;14;14;
74880;PMS5003;63427;49.654;6.596;2023-02-28T10:40:32;15;13;
74880;PMS5003;63427;49.654;6.596;2023-02-28T10:42:57;15;15;
74880;PMS5003;63427;49.654;6.596;2023-02-28T10:45:22;13;13;
74880;PMS5003;63427;49.654;6.596;2023-02-28T10:47:50;15;15;
74880;PMS5003;63427;49.654;6.596;2023-02-28T10:52:39;16;16;
74880;PMS5003;63427;49.654;6.596;2023-02-28T10:57:30;14;14;
74880;PMS5003;63427;49.654;6.596;2023-02-28T11:00:06;19;16;
74880;PMS5003;63427;49.654;6.596;2023-02-28T11:02:30;13;13;
74880;PMS5003;63427;49.654;6.596;2023-02-28T11:04:46;18;17;
74880;PMS5003;63427;49.654;6.596;2023-02-28T11:07:16;15;14;
74880;PMS5003;63427;49.654;6.596;2023-02-28T11:09:38;15;15;
74880;PMS5003;63427;49.654;6.596;2023-02-28T11:12:04;19;18;
74880;PMS5003;63427;49.654;6.596;2023-02-28T11:14:30;15;15;
74880;PMS5003;63427;49.654;6.596;2023-02-28T11:16:55;18;18;
74880;PMS5003;63427;49.654;6.596;2023-02-28T11:19:22;14;14;
74880;PMS5003;63427;49.654;6.596;2023-02-28T11:21:48;19;19;
74880;PMS5003;63427;49.654;6.596;2023-02-28T11:24:12;16;14;
74880;PMS5003;63427;49.654;6.596;2023-02-28T11:26:39;13;13;
74880;PMS5003;63427;49.654;6.596;2023-02-28T11:29:08;18;18;
74880;PMS5003;63427;49.654;6.596;2023-02-28T11:31:28;18;17;
74880;PMS5003;63427;49.654;6.596;2023-02-28T11:33:54;24;23;
74880;PMS5003;63427;49.654;6.596;2023-02-28T11:36:20;19;18;
74880;PMS5003;63427;49.654;6.596;2023-02-28T11:38:46;17;17;
74880;PMS5003;63427;49.654;6.596;2023-02-28T11:41:16;15;14;
74880;PMS5003;63427;49.654;6.596;2023-02-28T11:43:40;14;13;
74880;PMS5003;63427;49.654;6.596;2023-02-28T11:46:06;19;19;
74880;PMS5003;63427;49.654;6.596;2023-02-28T11:48:30;16;15;
74880;PMS5003;63427;49.654;6.596;2023-02-28T11:50:57;16;16;
74880;PMS5003;63427;49.654;6.596;2023-02-28T11:53:21;15;15;
74880;PMS5003;63427;49.654;6.596;2023-02-28T11:55:44;14;14;
74880;PMS5003;63427;49.654;6.596;2023-02-28T11:58:16;11;11;
74880;PMS5003;63427;49.654;6.596;2023-02-28T12:00:39;16;16;
74880;PMS5003;63427;49.654;6.596;2023-02-28T12:03:03;15;14;
74880;PMS5003;63427;49.654;6.596;2023-02-28T12:05:28;15;14;
74880;PMS5003;63427;49.654;6.596;2023-02-28T12:07:56;16;16;
74880;PMS5003;63427;49.654;6.596;2023-02-28T12:10:20;15;15;
74880;PMS5003;63427;49.654;6.596;2023-02-28T12:12:44;13;13;
74880;PMS5003;63427;49.654;6.596;2023-02-28T12:17:38;14;14;
74880;PMS5003;63427;49.654;6.596;2023-02-28T12:20:02;16;16;
74880;PMS5003;63427;49.654;6.596;2023-02-28T12:22:28;16;16;
74880;PMS5003;63427;49.654;6.596;2023-02-28T12:24:55;17;17;
74880;PMS5003;63427;49.654;6.596;2023-02-28T12:27:16;19;18;
74880;PMS5003;63427;49.654;6.596;2023-02-28T12:29:42;15;15;
74880;PMS5003;63427;49.654;6.596;2023-02-28T12:32:06;20;19;
74880;PMS5003;63427;49.654;6.596;2023-02-28T12:34:31;47;46;
74880;PMS5003;63427;49.654;6.596;2023-02-28T12:36:56;22;22;
74880;PMS5003;63427;49.654;6.596;2023-02-28T12:39:23;21;20;
74880;PMS5003;63427;49.654;6.596;2023-02-28T12:41:48;14;14;
74880;PMS5003;63427;49.654;6.596;2023-02-28T12:44:13;18;18;
74880;PMS5003;63427;49.654;6.596;2023-02-28T12:46:38;16;15;
74880;PMS5003;63427;49.654;6.596;2023-02-28T12:49:05;21;19;
74880;PMS5003;63427;49.654;6.596;2023-02-28T12:51:28;17;17;
74880;PMS5003;63427;49.654;6.596;2023-02-28T12:53:57;13;13;
74880;PMS5003;63427;49.654;6.596;2023-02-28T12:56:21;17;17;
74880;PMS5003;63427;49.654;6.596;2023-02-28T12:58:45;18;18;
74880;PMS5003;63427;49.654;6.596;2023-02-28T13:03:41;19;19;
74880;PMS5003;63427;49.654;6.596;2023-02-28T13:06:05;22;20;
74880;PMS5003;63427;49.654;6.596;2023-02-28T13:08:34;14;14;
74880;PMS5003;63427;49.654;6.596;2023-02-28T13:10:52;18;17;
74880;PMS5003;63427;49.654;6.596;2023-02-28T13:13:18;15;14;
74880;PMS5003;63427;49.654;6.596;2023-02-28T13:18:19;22;22;
74880;PMS5003;63427;49.654;6.596;2023-02-28T13:20:34;16;15;
74880;PMS5003;63427;49.654;6.596;2023-02-28T13:22:59;15;15;
74880;PMS5003;63427;49.654;6.596;2023-02-28T13:27:51;17;16;
74880;PMS5003;63427;49.654;6.596;2023-02-28T13:32:41;19;18;
74880;PMS5003;63427;49.654;6.596;2023-02-28T13:35:14;15;15;
74880;PMS5003;63427;49.654;6.596;2023-02-28T13:37:34;19;17;
74880;PMS5003;63427;49.654;6.596;2023-02-28T13:39:57;14;14;
74880;PMS5003;63427;49.654;6.596;2023-02-28T13:42:24;17;16;
74880;PMS5003;63427;49.654;6.596;2023-02-28T13:47:20;19;19;
74880;PMS5003;63427;49.654;6.596;2023-02-28T13:49:38;16;16;
74880;PMS5003;63427;49.654;6.596;2023-02-28T13:52:07;19;18;
74880;PMS5003;63427;49.654;6.596;2023-02-28T13:54:33;17;17;
74880;PMS5003;63427;49.654;6.596;2023-02-28T13:56:57;16;15;
74880;PMS5003;63427;49.654;6.596;2023-02-28T13:59:23;17;17;
74880;PMS5003;63427;49.654;6.596;2023-02-28T14:01:49;20;20;
74880;PMS5003;63427;49.654;6.596;2023-02-28T14:04:15;17;17;
74880;PMS5003;63427;49.654;6.596;2023-02-28T14:06:37;18;18;
74880;PMS5003;63427;49.654;6.596;2023-02-28T14:09:03;16;16;
74880;PMS5003;63427;49.654;6.596;2023-02-28T14:11:29;16;16;
74880;PMS5003;63427;49.654;6.596;2023-02-28T14:13:53;18;18;
74880;PMS5003;63427;49.654;6.596;2023-02-28T14:16:20;15;15;
74880;PMS5003;63427;49.654;6.596;2023-02-28T14:18:48;20;17;
74880;PMS5003;63427;49.654;6.596;2023-02-28T14:21:11;19;18;
74880;PMS5003;63427;49.654;6.596;2023-02-28T14:23:42;14;14;
74880;PMS5003;63427;49.654;6.596;2023-02-28T14:26:02;20;19;
74880;PMS5003;63427;49.654;6.596;2023-02-28T14:28:28;19;19;
74880;PMS5003;63427;49.654;6.596;2023-02-28T14:30:56;16;16;
74880;PMS5003;63427;49.654;6.596;2023-02-28T14:33:19;18;18;
74880;PMS5003;63427;49.654;6.596;2023-02-28T14:35:48;20;19;
74880;PMS5003;63427;49.654;6.596;2023-02-28T14:38:16;16;16;
74880;PMS5003;63427;49.654;6.596;2023-02-28T14:40:34;18;17;
74880;PMS5003;63427;49.654;6.596;2023-02-28T14:43:01;15;15;
74880;PMS5003;63427;49.654;6.596;2023-02-28T14:45:25;19;17;
74880;PMS5003;63427;49.654;6.596;2023-02-28T14:47:51;16;15;
74880;PMS5003;63427;49.654;6.596;2023-02-28T14:50:18;15;15;
74880;PMS5003;63427;49.654;6.596;2023-02-28T14:52:42;20;19;
74880;PMS5003;63427;49.654;6.596;2023-02-28T14:55:12;18;17;
74880;PMS5003;63427;49.654;6.596;2023-02-28T14:57:33;17;15;
74880;PMS5003;63427;49.654;6.596;2023-02-28T14:59:58;16;16;
74880;PMS5003;63427;49.654;6.596;2023-02-28T15:02:23;15;14;
74880;PMS5003;63427;49.654;6.596;2023-02-28T15:04:54;27;27;
74880;PMS5003;63427;49.654;6.596;2023-02-28T15:07:14;21;20;
74880;PMS5003;63427;49.654;6.596;2023-02-28T15:09:39;19;19;
74880;PMS5003;63427;49.654;6.596;2023-02-28T15:12:04;18;18;
74880;PMS5003;63427;49.654;6.596;2023-02-28T15:14:29;20;20;
74880;PMS5003;63427;49.654;6.596;2023-02-28T15:16:56;20;19;
74880;PMS5003;63427;49.654;6.596;2023-02-28T15:19:21;19;19;
74880;PMS5003;63427;49.654;6.596;2023-02-28T15:21:46;16;16;
74880;PMS5003;63427;49.654;6.596;2023-02-28T15:24:12;16;16;
74880;PMS5003;63427;49.654;6.596;2023-02-28T15:26:37;15;15;
74880;PMS5003;63427;49.654;6.596;2023-02-28T15:29:04;17;17;
74880;PMS5003;63427;49.654;6.596;2023-02-28T15:31:28;21;19;
74880;PMS5003;63427;49.654;6.596;2023-02-28T15:33:54;20;19;
74880;PMS5003;63427;49.654;6.596;2023-02-28T15:36:19;16;16;
74880;PMS5003;63427;49.654;6.596;2023-02-28T15:38:44;17;15;
74880;PMS5003;63427;49.654;6.596;2023-02-28T15:43:36;22;22;
74880;PMS5003;63427;49.654;6.596;2023-02-28T15:46:01;20;19;
74880;PMS5003;63427;49.654;6.596;2023-02-28T15:48:27;21;20;
74880;PMS5003;63427;49.654;6.596;2023-02-28T15:50:52;22;22;
74880;PMS5003;63427;49.654;6.596;2023-02-28T15:53:19;16;16;
74880;PMS5003;63427;49.654;6.596;2023-02-28T15:55:42;18;17;
74880;PMS5003;63427;49.654;6.596;2023-02-28T15:58:07;19;19;
74880;PMS5003;63427;49.654;6.596;2023-02-28T16:00:32;22;22;
74880;PMS5003;63427;49.654;6.596;2023-02-28T16:02:58;18;18;
74880;PMS5003;63427;49.654;6.596;2023-02-28T16:05:24;23;23;
74880;PMS5003;63427;49.654;6.596;2023-02-28T16:07:49;21;21;
74880;PMS5003;63427;49.654;6.596;2023-02-28T16:10:15;18;18;
74880;PMS5003;63427;49.654;6.596;2023-02-28T16:12:41;23;22;
74880;PMS5003;63427;49.654;6.596;2023-02-28T16:15:07;18;17;
74880;PMS5003;63427;49.654;6.596;2023-02-28T16:17:32;16;16;
74880;PMS5003;63427;49.654;6.596;2023-02-28T16:19:57;18;18;
74880;PMS5003;63427;49.654;6.596;2023-02-28T16:22:22;19;19;
74880;PMS5003;63427;49.654;6.596;2023-02-28T16:24:48;22;21;
74880;PMS5003;63427;49.654;6.596;2023-02-28T16:27:15;20;20;
74880;PMS5003;63427;49.654;6.596;2023-02-28T16:29:38;21;21;
74880;PMS5003;63427;49.654;6.596;2023-02-28T16:32:04;18;18;
74880;PMS5003;63427;49.654;6.596;2023-02-28T16:34:28;18;18;
74880;PMS5003;63427;49.654;6.596;2023-02-28T16:36:54;20;20;